Time;durP1;ratioP1;P1;durP2;ratioP2;P2;SDS_P1;SDS_P2;PMS_P1;PMS_P2;Temp;Humidity;BMP_temperature;BMP_pressure;BME280_temperature;BME280_humidity;BME280_pressure;Samples;Min_cycle;Max_cycle;Signal;HPM_P1;HPM_P2
2022/12/03 00:01:41;;;;;;;43.05;16.60;;;3.60;84.00;;;;;;9173470;19;20011;-66
2022/12/03 00:04:44;;;;;;;39.67;14.52;;;3.60;84.00;;;;;;9175743;19;20014;-65
2022/12/03 00:07:50;;;;;;;38.10;15.80;;;3.60;84.00;;;;;;9180257;19;20010;-64
2022/12/03 00:10:54;;;;;;;38.85;16.52;;;3.60;84.10;;;;;;9178746;19;20018;-66
2022/12/03 00:13:58;;;;;;;46.28;17.33;;;3.60;84.00;;;;;;9179698;19;20849;-64
2022/12/03 00:17:01;;;;;;;39.78;17.33;;;3.60;84.00;;;;;;9180296;19;20018;-64
2022/12/03 00:20:06;;;;;;;37.90;16.73;;;3.70;84.00;;;;;;9178029;19;20023;-66
2022/12/03 00:23:12;;;;;;;38.95;16.00;;;3.70;84.00;;;;;;9180008;19;20240;-65
2022/12/03 00:26:16;;;;;;;40.20;16.20;;;3.70;84.00;;;;;;9181213;19;20017;-65
2022/12/03 00:29:19;;;;;;;44.08;17.52;;;3.70;84.00;;;;;;9183343;19;20010;-66
2022/12/03 00:32:23;;;;;;;44.10;17.15;;;3.70;84.00;;;;;;9182646;19;20456;-65
2022/12/03 00:35:27;;;;;;;43.90;17.35;;;3.70;84.00;;;;;;9182354;19;20029;-64
2022/12/03 00:38:33;;;;;;;38.65;16.40;;;3.70;84.10;;;;;;9183473;19;20007;-65
2022/12/03 00:41:37;;;;;;;39.35;16.65;;;3.70;84.00;;;;;;9182441;19;20022;-66
2022/12/03 00:44:41;;;;;;;40.78;17.40;;;3.70;84.00;;;;;;9178540;19;20007;-64
2022/12/03 00:47:45;;;;;;;43.28;16.92;;;3.70;84.00;;;;;;9180480;19;20015;-64
2022/12/03 00:50:49;;;;;;;40.03;16.77;;;3.70;84.00;;;;;;9180716;19;20508;-65
2022/12/03 00:53:55;;;;;;;41.40;16.55;;;3.70;84.00;;;;;;9178594;19;20018;-66
2022/12/03 00:56:59;;;;;;;42.78;17.52;;;3.70;84.00;;;;;;9180224;19;20027;-66
2022/12/03 01:00:03;;;;;;;;;;;3.70;84.00;;;;;;9183470;19;20062;-65
2022/12/03 01:03:06;;;;;;;41.50;16.23;;;3.70;84.00;;;;;;9179344;19;19915;-64
2022/12/03 01:06:10;;;;;;;;;;;3.70;84.00;;;;;;9180632;19;20014;-65
2022/12/03 01:09:16;;;;;;;41.23;16.73;;;3.70;84.00;;;;;;9180944;19;19926;-65
2022/12/03 01:12:19;;;;;;;47.15;18.80;;;3.70;84.00;;;;;;9181228;19;20010;-64
2022/12/03 01:15:23;;;;;;;37.17;15.25;;;3.70;84.00;;;;;;9181319;19;20464;-68
2022/12/03 01:18:27;;;;;;;39.92;16.10;;;3.70;84.00;;;;;;9175523;19;20034;-64
2022/12/03 01:21:30;;;;;;;37.78;15.95;;;3.70;84.10;;;;;;9180713;19;20085;-65
2022/12/03 01:24:36;;;;;;;38.88;16.60;;;3.70;84.10;;;;;;9174404;19;20038;-64
2022/12/03 01:27:40;;;;;;;40.83;16.38;;;3.70;84.10;;;;;;9180653;19;20420;-64
2022/12/03 01:34:00;;;;;;;38.75;15.63;;;3.70;84.10;;;;;;9180084;19;20028;-64
2022/12/03 01:37:04;;;;;;;43.45;17.33;;;3.70;84.10;;;;;;9181157;19;20464;-67
2022/12/03 01:40:16;;;;;;;36.83;15.65;;;3.70;84.00;;;;;;9180532;19;20014;-65
2022/12/03 01:43:20;;;;;;;40.60;17.67;;;3.80;84.10;;;;;;9179315;19;20019;-65
2022/12/03 01:46:27;;;;;;;43.15;18.05;;;3.70;84.00;;;;;;9181474;19;20018;-65
2022/12/03 01:49:34;;;;;;;43.70;18.23;;;3.80;84.10;;;;;;9179110;19;20090;-67
2022/12/03 01:52:40;;;;;;;36.40;16.65;;;3.80;84.20;;;;;;9177888;19;20003;-64
2022/12/03 01:55:46;;;;;;;45.20;18.23;;;3.80;84.10;;;;;;9180768;19;20486;-64
2022/12/03 01:58:52;;;;;;;41.75;16.88;;;3.80;84.10;;;;;;9178741;19;20524;-66
2022/12/03 02:01:55;;;;;;;;;;;3.80;84.00;;;;;;9181495;19;20006;-64
2022/12/03 02:05:00;;;;;;;46.65;18.08;;;3.80;84.00;;;;;;9174487;19;19979;-66
2022/12/03 02:08:30;;;;;;;47.58;18.27;;;3.80;84.00;;;;;;9179964;19;20439;-67
2022/12/03 02:11:39;;;;;;;48.33;18.75;;;3.80;84.10;;;;;;9179927;19;20383;-64
2022/12/03 02:14:43;;;;;;;42.42;18.58;;;3.80;84.00;;;;;;9180439;19;20022;-65
2022/12/03 02:17:47;;;;;;;49.78;17.88;;;3.80;84.00;;;;;;9179767;19;20015;-64
2022/12/03 02:21:01;;;;;;;44.38;18.98;;;3.80;84.10;;;;;;9170199;19;20010;-64
2022/12/03 02:24:09;;;;;;;;;;;3.80;84.10;;;;;;9177363;19;20025;-65
2022/12/03 02:27:14;;;;;;;51.97;19.30;;;3.80;84.10;;;;;;9175644;19;19934;-65
2022/12/03 02:30:20;;;;;;;46.63;20.60;;;3.80;84.10;;;;;;9178884;19;20037;-64
2022/12/03 02:33:24;;;;;;;53.40;19.98;;;3.80;84.00;;;;;;9178601;19;20019;-66
2022/12/03 02:36:28;;;;;;;;;;;3.80;84.00;;;;;;9180323;19;20007;-64
2022/12/03 02:39:33;;;;;;;51.42;19.45;;;3.80;84.00;;;;;;9177739;19;19926;-67
2022/12/03 02:42:39;;;;;;;50.38;20.55;;;3.80;84.00;;;;;;9178356;19;20018;-64
2022/12/03 02:45:47;;;;;;;46.80;19.40;;;3.80;84.00;;;;;;9176817;19;20022;-65
2022/12/03 02:48:51;;;;;;;48.15;18.65;;;3.80;84.10;;;;;;9177042;19;20015;-64
2022/12/03 02:51:54;;;;;;;49.00;19.38;;;3.80;84.00;;;;;;9175143;19;20014;-65
2022/12/03 02:54:58;;;;;;;;;;;3.80;84.00;;;;;;9179045;19;20041;-67
2022/12/03 02:58:04;;;;;;;49.47;19.60;;;3.80;84.10;;;;;;9178980;19;19919;-65
2022/12/03 03:01:10;;;;;;;44.13;19.25;;;3.80;84.00;;;;;;9177279;19;20467;-64
2022/12/03 03:04:16;;;;;;;50.28;19.35;;;3.80;84.10;;;;;;9174038;19;20014;-65
2022/12/03 03:07:20;;;;;;;48.35;19.73;;;3.80;84.00;;;;;;9177750;19;20341;-64
2022/12/03 03:10:25;;;;;;;43.88;18.08;;;3.80;84.00;;;;;;9179084;19;20018;-64
2022/12/03 03:13:32;;;;;;;48.38;19.88;;;3.80;84.00;;;;;;9177980;19;20033;-66
2022/12/03 03:16:36;;;;;;;48.58;19.90;;;3.80;84.10;;;;;;9173340;19;20033;-66
2022/12/03 03:19:40;;;;;;;44.25;19.08;;;3.80;84.00;;;;;;9171316;19;20015;-64
2022/12/03 03:22:44;;;;;;;41.92;17.80;;;3.80;84.00;;;;;;9177439;19;20468;-65
2022/12/03 03:25:51;;;;;;;38.45;17.23;;;3.80;84.00;;;;;;9175212;19;20089;-66
2022/12/03 03:29:01;;;;;;;36.13;16.38;;;3.70;83.90;;;;;;9175640;19;20022;-64
2022/12/03 03:32:06;;;;;;;42.70;16.90;;;3.70;83.90;;;;;;9177575;19;20022;-65
2022/12/03 03:35:13;;;;;;;34.28;16.13;;;3.70;83.90;;;;;;9176631;19;20107;-65
2022/12/03 03:38:19;;;;;;;37.40;16.90;;;3.70;83.90;;;;;;9177327;19;20023;-66
2022/12/03 03:41:23;;;;;;;38.90;17.02;;;3.70;83.90;;;;;;9186006;19;20007;-65
2022/12/03 03:44:29;;;;;;;39.28;16.55;;;3.70;83.90;;;;;;9183691;19;20021;-65
2022/12/03 03:47:33;;;;;;;37.00;16.00;;;3.70;83.90;;;;;;9183450;19;20015;-65
2022/12/03 03:50:37;;;;;;;36.38;15.30;;;3.70;83.80;;;;;;9185742;19;20030;-66
2022/12/03 03:53:43;;;;;;;35.65;15.13;;;3.70;83.80;;;;;;9182716;19;20960;-64
2022/12/03 03:56:47;;;;;;;34.10;16.30;;;3.70;83.80;;;;;;9184654;19;20025;-65
2022/12/03 03:59:53;;;;;;;42.28;17.13;;;3.70;83.80;;;;;;9185181;19;20575;-64
2022/12/03 04:02:57;;;;;;;34.65;15.95;;;3.70;83.70;;;;;;9182350;19;20091;-65
2022/12/03 04:06:01;;;;;;;35.95;17.00;;;3.60;83.60;;;;;;9184070;19;20018;-64
2022/12/03 04:09:04;;;;;;;;;;;3.60;83.60;;;;;;9183744;19;20463;-64
2022/12/03 04:15:27;;;;;;;33.92;16.17;;;3.60;83.70;;;;;;9183973;19;20823;-64
2022/12/03 04:18:43;;;;;;;34.67;16.10;;;3.60;83.70;;;;;;9179322;19;20026;-65
2022/12/03 04:38:15;;;;;;;43.50;17.98;;;3.70;83.60;;;;;;9181356;19;20019;-64
2022/12/03 04:41:19;;;;;;;36.80;15.82;;;3.60;83.50;;;;;;9183098;19;20014;-64
2022/12/03 04:44:36;;;;;;;43.92;18.02;;;3.60;83.50;;;;;;9181814;19;20026;-67
2022/12/03 04:47:42;;;;;;;47.38;18.92;;;3.60;83.50;;;;;;9181676;19;20018;-64
2022/12/03 04:50:46;;;;;;;40.22;17.30;;;3.60;83.60;;;;;;9181017;19;20018;-65
2022/12/03 04:53:49;;;;;;;;;;;3.60;83.60;;;;;;9179318;19;20038;-65
2022/12/03 04:56:53;;;;;;;48.90;18.42;;;3.60;83.60;;;;;;9180897;19;19922;-64
2022/12/03 04:59:57;;;;;;;;;;;3.60;83.60;;;;;;9183762;19;20013;-65
2022/12/03 05:03:02;;;;;;;46.73;17.70;;;3.50;83.60;;;;;;9182442;19;19919;-66
2022/12/03 05:06:07;;;;;;;39.88;16.95;;;3.50;83.60;;;;;;9182777;19;20015;-66
2022/12/03 05:09:11;;;;;;;46.58;17.75;;;3.60;83.60;;;;;;9180116;19;20015;-64
2022/12/03 05:12:15;;;;;;;46.78;18.08;;;3.50;83.50;;;;;;9182028;19;20019;-64
2022/12/03 05:15:18;;;;;;;;;;;3.50;83.50;;;;;;9183515;19;20011;-65
2022/12/03 05:18:24;;;;;;;48.30;18.20;;;3.50;83.50;;;;;;9177521;19;19915;-64
2022/12/03 05:21:28;;;;;;;45.78;18.40;;;3.50;83.50;;;;;;9180747;19;20015;-65
2022/12/03 05:24:31;;;;;;;;;;;3.50;83.50;;;;;;9180167;19;20369;-65
2022/12/03 05:27:35;;;;;;;43.38;15.07;;;3.50;83.50;;;;;;9181712;19;20272;-64
2022/12/03 05:30:39;;;;;;;53.40;20.10;;;3.40;83.50;;;;;;9180940;19;20519;-64
2022/12/03 05:33:44;;;;;;;;;;;3.40;83.50;;;;;;9181397;19;20022;-64
2022/12/03 05:36:48;;;;;;;49.55;20.90;;;3.40;83.60;;;;;;9181758;19;19921;-64
2022/12/03 05:39:51;;;;;;;50.38;19.70;;;3.40;83.60;;;;;;9181344;19;20011;-65
2022/12/03 05:42:55;;;;;;;57.25;21.38;;;3.30;83.60;;;;;;9179193;19;20691;-65
2022/12/03 05:45:59;;;;;;;57.22;20.05;;;3.40;83.70;;;;;;9180949;19;20010;-64
2022/12/03 05:49:08;;;;;;;51.60;20.60;;;3.40;83.70;;;;;;9181940;19;20014;-65
2022/12/03 05:52:11;;;;;;;53.38;20.17;;;3.30;83.70;;;;;;9179398;19;20014;-67
2022/12/03 05:55:15;;;;;;;50.58;20.60;;;3.30;83.60;;;;;;9178970;19;20662;-66
2022/12/03 05:58:19;;;;;;;47.63;19.63;;;3.30;83.60;;;;;;9180464;19;20011;-64
2022/12/03 06:01:22;;;;;;;54.35;19.60;;;3.30;83.60;;;;;;9175321;19;20061;-67
2022/12/03 06:04:30;;;;;;;52.13;19.17;;;3.30;83.60;;;;;;9178085;19;20029;-63
2022/12/03 06:07:34;;;;;;;47.08;19.02;;;3.30;83.60;;;;;;9180582;19;20362;-66
2022/12/03 06:10:37;;;;;;;;;;;3.30;83.60;;;;;;9181007;19;20029;-65
2022/12/03 06:13:41;;;;;;;50.70;18.37;;;3.30;83.60;;;;;;9179931;19;19927;-65
2022/12/03 06:16:45;;;;;;;;;;;3.30;83.50;;;;;;9173057;19;20028;-69
2022/12/03 06:19:50;;;;;;;46.08;18.45;;;3.30;83.50;;;;;;9166896;19;20324;-64
2022/12/03 06:22:54;;;;;;;49.05;18.80;;;3.30;83.50;;;;;;9172912;19;20015;-65
2022/12/03 06:25:58;;;;;;;60.42;19.92;;;3.30;83.50;;;;;;9167475;19;20022;-65
2022/12/03 06:29:02;;;;;;;53.25;19.88;;;3.30;83.60;;;;;;9168190;19;20677;-65
2022/12/03 06:32:05;;;;;;;;;;;3.30;83.50;;;;;;9169502;19;20025;-64
2022/12/03 06:35:11;;;;;;;46.20;18.30;;;3.20;83.40;;;;;;9178855;19;19918;-65
2022/12/03 06:38:15;;;;;;;48.88;18.50;;;3.20;83.50;;;;;;9175069;19;20077;-65
2022/12/03 06:41:18;;;;;;;;;;;3.20;83.40;;;;;;9173844;19;20024;-64
2022/12/03 06:44:22;;;;;;;54.20;18.75;;;3.10;83.40;;;;;;9171141;19;19926;-64
2022/12/03 06:47:26;;;;;;;55.08;19.15;;;3.10;83.40;;;;;;9172801;19;20019;-65
2022/12/03 06:50:31;;;;;;;62.75;20.58;;;3.10;83.50;;;;;;9173828;19;20025;-65
2022/12/03 06:53:35;;;;;;;60.22;21.35;;;3.10;83.50;;;;;;9175409;19;20018;-65
2022/12/03 06:56:39;;;;;;;;;;;3.00;83.50;;;;;;9180057;19;20022;-64
2022/12/03 06:59:48;;;;;;;62.55;19.95;;;3.00;83.50;;;;;;9178376;19;19923;-64
2022/12/03 07:02:52;;;;;;;61.55;21.15;;;3.00;83.50;;;;;;9176330;19;20025;-64
2022/12/03 07:05:58;;;;;;;;;;;3.00;83.50;;;;;;9179109;19;20521;-67
2022/12/03 07:09:01;;;;;;;65.35;20.63;;;3.00;83.50;;;;;;9178357;19;19919;-67
2022/12/03 07:12:05;;;;;;;64.13;20.15;;;2.90;83.40;;;;;;9179861;19;20015;-67
2022/12/03 07:15:10;;;;;;;65.32;21.73;;;2.90;83.50;;;;;;9186252;19;20022;-64
2022/12/03 07:18:14;;;;;;;61.90;21.00;;;2.90;83.60;;;;;;9180486;19;20107;-66
2022/12/03 07:21:20;;;;;;;64.25;22.00;;;2.90;83.50;;;;;;9186211;19;20085;-66
2022/12/03 07:24:23;;;;;;;59.90;20.02;;;2.80;83.50;;;;;;9182356;19;20021;-65
2022/12/03 07:27:27;;;;;;;62.72;21.90;;;2.80;83.50;;;;;;9184979;19;20018;-63
2022/12/03 07:30:31;;;;;;;75.65;21.25;;;2.80;83.50;;;;;;9184980;19;20034;-64
2022/12/03 07:33:35;;;;;;;61.15;20.48;;;2.80;83.50;;;;;;9184877;19;20018;-65
2022/12/03 07:36:40;;;;;;;;;;;2.70;83.50;;;;;;9185363;19;20479;-64
2022/12/03 07:39:44;;;;;;;59.83;20.70;;;2.70;83.50;;;;;;9183159;19;19931;-65
2022/12/03 07:42:47;;;;;;;;;;;2.70;83.50;;;;;;9184528;19;20022;-65
2022/12/03 07:45:51;;;;;;;63.95;20.55;;;2.70;83.60;;;;;;9182753;19;19986;-64
2022/12/03 07:48:55;;;;;;;67.03;22.00;;;2.70;83.60;;;;;;9182879;19;20045;-65
2022/12/03 07:52:00;;;;;;;;;;;2.70;83.60;;;;;;9184971;19;20017;-64
2022/12/03 07:55:04;;;;;;;59.25;21.48;;;2.70;83.60;;;;;;9183700;19;19922;-64
2022/12/03 07:58:08;;;;;;;60.38;20.17;;;2.70;83.60;;;;;;9182258;19;20093;-65
2022/12/03 08:01:12;;;;;;;59.35;19.42;;;2.60;83.50;;;;;;9184308;19;20011;-65
2022/12/03 08:04:17;;;;;;;;;;;2.60;83.50;;;;;;9183113;19;20010;-64
2022/12/03 08:07:23;;;;;;;57.40;21.10;;;2.60;83.50;;;;;;9184043;19;19907;-66
2022/12/03 08:10:27;;;;;;;58.03;19.63;;;2.60;83.50;;;;;;9184148;19;20033;-64
2022/12/03 08:13:30;;;;;;;;;;;2.60;83.50;;;;;;9183401;19;20010;-65
2022/12/03 08:16:39;;;;;;;55.63;20.83;;;2.60;83.50;;;;;;9184227;19;19926;-66
2022/12/03 08:19:47;;;;;;;54.35;18.88;;;2.60;83.40;;;;;;9178128;19;20421;-65
2022/12/03 08:22:54;;;;;;;58.45;19.95;;;2.60;83.40;;;;;;9181222;19;20026;-68
2022/12/03 08:26:01;;;;;;;61.65;20.27;;;2.70;83.50;;;;;;9178507;19;20057;-65
2022/12/03 08:29:10;;;;;;;60.80;20.35;;;2.60;83.50;;;;;;9183263;19;20078;-65
2022/12/03 08:32:14;;;;;;;59.45;21.00;;;2.60;83.50;;;;;;9181273;19;20026;-64
2022/12/03 08:35:23;;;;;;;62.67;20.73;;;2.60;83.50;;;;;;9178892;19;20016;-64
2022/12/03 08:38:30;;;;;;;64.50;21.52;;;2.70;83.50;;;;;;9177726;19;20011;-64
2022/12/03 08:45:40;;;;;;;61.97;20.52;;;2.60;83.40;;;;;;9173515;19;20022;-66
2022/12/03 08:48:46;;;;;;;64.97;21.40;;;2.70;83.40;;;;;;9177385;19;20018;-65
2022/12/03 08:51:57;;;;;;;63.88;21.13;;;2.70;83.40;;;;;;9173184;19;20018;-64
2022/12/03 08:55:29;;;;;;;69.85;23.58;;;2.70;83.40;;;;;;9176541;19;20034;-63
2022/12/03 08:58:40;;;;;;;71.97;22.48;;;2.70;83.40;;;;;;9178528;19;20022;-65
2022/12/03 09:01:46;;;;;;;60.47;22.23;;;2.60;83.30;;;;;;9180010;19;20015;-63
2022/12/03 09:04:51;;;;;;;71.72;21.92;;;2.60;83.30;;;;;;9175442;19;20018;-65
2022/12/03 09:07:55;;;;;;;87.80;25.30;;;2.60;83.30;;;;;;9171572;19;20089;-66
2022/12/03 09:11:01;;;;;;;80.28;23.27;;;2.60;83.40;;;;;;9172208;19;20014;-67
2022/12/03 09:14:06;;;;;;;77.15;24.63;;;2.60;83.40;;;;;;9172270;19;20089;-67
2022/12/03 09:17:10;;;;;;;70.47;24.63;;;2.60;83.50;;;;;;9175878;19;20487;-65
2022/12/03 09:20:14;;;;;;;85.45;26.90;;;2.60;83.50;;;;;;9167050;19;20058;-66
2022/12/03 09:23:17;;;;;;;76.85;25.05;;;2.60;83.40;;;;;;9173277;19;20017;-64
2022/12/03 09:26:23;;;;;;;;;;;2.50;83.40;;;;;;9174698;19;20022;-65
2022/12/03 09:29:26;;;;;;;77.57;25.00;;;2.50;83.50;;;;;;9172046;19;19922;-66
2022/12/03 09:32:30;;;;;;;;;;;2.50;83.40;;;;;;9170018;19;20025;-64
2022/12/03 09:35:34;;;;;;;70.93;24.10;;;2.40;83.40;;;;;;9171434;19;19918;-65
2022/12/03 09:38:37;;;;;;;73.47;23.77;;;2.40;83.30;;;;;;9172180;19;20014;-64
2022/12/03 09:41:51;;;;;;;75.00;24.33;;;2.40;83.50;;;;;;9173020;19;20249;-66
2022/12/03 09:44:55;;;;;;;75.13;22.65;;;2.40;83.50;;;;;;9172519;19;20014;-64
2022/12/03 09:48:02;;;;;;;79.47;23.75;;;2.40;83.50;;;;;;9179135;19;20011;-63
2022/12/03 09:51:07;;;;;;;78.20;24.52;;;2.40;83.50;;;;;;9172815;19;20018;-64
2022/12/03 09:54:16;;;;;;;75.95;24.38;;;2.40;83.50;;;;;;9173380;19;20035;-65
2022/12/03 09:57:22;;;;;;;84.80;25.10;;;2.40;83.50;;;;;;9176067;19;20677;-63
2022/12/03 10:00:28;;;;;;;70.32;23.15;;;2.40;83.50;;;;;;9173514;19;20010;-65
2022/12/03 10:03:33;;;;;;;73.15;22.30;;;2.40;83.50;;;;;;9172126;19;20044;-64
2022/12/03 10:06:38;;;;;;;77.55;24.48;;;2.40;83.50;;;;;;9176100;19;20025;-63
2022/12/03 10:09:48;;;;;;;73.97;23.02;;;2.30;83.50;;;;;;9174100;19;20010;-63
2022/12/03 10:12:55;;;;;;;65.03;21.65;;;2.30;83.60;;;;;;9173305;19;20018;-64
2022/12/03 10:16:01;;;;;;;69.72;21.58;;;2.30;83.60;;;;;;9175816;19;20500;-63
2022/12/03 10:19:05;;;;;;;58.65;19.80;;;2.30;83.50;;;;;;9172486;19;20010;-64
2022/12/03 10:22:08;;;;;;;;;;;2.30;83.50;;;;;;9180553;19;20022;-63
2022/12/03 10:25:15;;;;;;;58.37;18.63;;;2.30;83.40;;;;;;9177376;19;19945;-65
2022/12/03 10:28:31;;;;;;;62.15;19.75;;;2.20;83.30;;;;;;9179354;19;21051;-62
2022/12/03 10:31:37;;;;;;;57.28;19.27;;;2.20;83.40;;;;;;9180184;19;20520;-63
2022/12/03 10:34:44;;;;;;;51.97;19.38;;;2.20;83.40;;;;;;9180048;19;20021;-65
2022/12/03 10:37:59;;;;;;;44.17;16.75;;;2.20;83.40;;;;;;9179167;19;20007;-63
2022/12/03 10:41:21;;;;;;;45.53;15.70;;;2.20;83.40;;;;;;9178293;19;20342;-65
2022/12/03 10:44:29;;;;;;;38.17;14.57;;;2.20;83.40;;;;;;9176196;19;20038;-66
2022/12/03 10:47:33;;;;;;;38.53;13.48;;;2.20;83.40;;;;;;9174186;19;20325;-65
2022/12/03 10:50:38;;;;;;;33.28;14.15;;;2.20;83.40;;;;;;9178404;19;20484;-65
2022/12/03 10:53:42;;;;;;;30.38;12.75;;;2.20;83.40;;;;;;9176002;19;20011;-64
2022/12/03 10:56:47;;;;;;;30.92;12.10;;;2.20;83.30;;;;;;9177093;19;20033;-65
2022/12/03 10:59:53;;;;;;;36.65;13.55;;;2.20;83.80;;;;;;9176131;19;20015;-67
2022/12/03 11:02:57;;;;;;;28.45;12.25;;;2.20;83.30;;;;;;9176265;19;20014;-65
2022/12/03 11:06:02;;;;;;;32.15;12.27;;;2.20;83.30;;;;;;9172799;19;20017;-64
2022/12/03 11:09:14;;;;;;;35.78;13.00;;;2.20;83.30;;;;;;9178158;19;20026;-64
2022/12/03 11:12:21;;;;;;;41.55;13.02;;;2.20;83.30;;;;;;9176465;19;20079;-68
2022/12/03 11:15:44;;;;;;;34.67;12.40;;;2.20;83.20;;;;;;9177906;19;20094;-65
2022/12/03 11:19:02;;;;;;;35.70;12.30;;;2.20;83.20;;;;;;9173645;19;20021;-63
2022/12/03 11:22:34;;;;;;;34.97;13.18;;;2.20;83.20;;;;;;9176175;19;20011;-64
2022/12/03 11:25:49;;;;;;;34.03;13.32;;;2.20;83.20;;;;;;9174232;19;20022;-63
2022/12/03 11:28:54;;;;;;;35.50;13.32;;;2.20;83.30;;;;;;9177714;19;20352;-64
2022/12/03 11:32:02;;;;;;;33.25;12.77;;;2.20;83.30;;;;;;9176252;19;20015;-64
2022/12/03 11:35:06;;;;;;;37.20;13.45;;;2.20;83.30;;;;;;9177134;19;20011;-64
2022/12/03 11:38:43;;;;;;;39.92;14.88;;;2.20;83.30;;;;;;9176914;19;20018;-64
2022/12/03 11:42:25;;;;;;;33.78;12.38;;;2.20;83.20;;;;;;9173671;19;20015;-64
2022/12/03 11:45:32;;;;;;;33.85;12.82;;;2.30;83.20;;;;;;9171906;19;20023;-65
2022/12/03 11:48:45;;;;;;;33.08;12.60;;;2.30;83.20;;;;;;9176976;19;20038;-64
2022/12/03 11:51:49;;;;;;;35.40;13.95;;;2.40;83.20;;;;;;9173014;19;20011;-64
2022/12/03 11:54:57;;;;;;;39.03;14.30;;;2.40;83.80;;;;;;9170950;19;20791;-66
2022/12/03 11:58:02;;;;;;;50.42;16.80;;;2.40;83.10;;;;;;9173525;19;20021;-64
2022/12/03 12:01:08;;;;;;;48.50;16.85;;;2.40;83.10;;;;;;9170912;19;20042;-65
2022/12/03 12:04:36;;;;;;;54.45;19.38;;;2.40;83.00;;;;;;9171052;19;20025;-65
2022/12/03 12:07:40;;;;;;;57.67;19.65;;;2.50;83.00;;;;;;9172357;19;20810;-65
2022/12/03 12:10:47;;;;;;;56.17;20.10;;;2.50;83.10;;;;;;9175468;19;20007;-67
2022/12/03 12:13:54;;;;;;;54.17;20.08;;;2.50;83.00;;;;;;9170521;19;20037;-66
2022/12/03 12:17:02;;;;;;;58.65;21.55;;;2.50;83.00;;;;;;9171227;19;20018;-66
2022/12/03 12:20:26;;;;;;;71.75;23.08;;;2.50;83.00;;;;;;9169921;19;20025;-65
2022/12/03 12:23:29;;;;;;;;;;;2.50;83.00;;;;;;9172756;19;20010;-68
2022/12/03 12:26:33;;;;;;;61.27;19.63;;;2.50;83.00;;;;;;9167910;19;19923;-65
2022/12/03 12:29:39;;;;;;;79.18;25.27;;;2.50;83.00;;;;;;9174584;19;20561;-65
2022/12/03 12:32:46;;;;;;;69.45;23.95;;;2.50;83.00;;;;;;9173075;19;20512;-64
2022/12/03 12:35:52;;;;;;;70.45;24.05;;;2.40;82.90;;;;;;9170302;19;20495;-67
2022/12/03 12:38:57;;;;;;;60.17;21.70;;;2.40;83.00;;;;;;9168071;19;20021;-65
2022/12/03 12:42:01;;;;;;;;;;;2.50;83.10;;;;;;9171178;19;20033;-67
2022/12/03 12:45:16;;;;;;;74.03;23.87;;;2.40;83.00;;;;;;9169035;19;19919;-65
2022/12/03 12:48:24;;;;;;;73.78;24.13;;;2.50;83.10;;;;;;9171829;19;20029;-65
2022/12/03 12:51:30;;;;;;;72.63;23.73;;;2.50;83.10;;;;;;9174657;19;20147;-65
2022/12/03 12:54:34;;;;;;;73.72;24.60;;;2.50;83.00;;;;;;9175385;19;20017;-65
2022/12/03 12:57:38;;;;;;;64.82;22.10;;;2.40;82.90;;;;;;9174933;19;20094;-65
2022/12/03 13:00:41;;;;;;;;;;;2.40;82.90;;;;;;9175012;19;20023;-67
2022/12/03 13:03:45;;;;;;;66.95;22.52;;;2.40;82.90;;;;;;9176788;19;19922;-64
2022/12/03 13:06:54;;;;;;;;;;;2.40;82.90;;;;;;9175129;19;20522;-65
2022/12/03 13:09:58;;;;;;;60.80;21.42;;;2.40;82.90;;;;;;9173852;19;20544;-67
2022/12/03 13:13:16;;;;;;;62.30;21.58;;;2.40;82.90;;;;;;9176149;19;20017;-66
2022/12/03 13:16:24;;;;;;;63.22;22.27;;;2.40;82.90;;;;;;9171663;19;20101;-66
2022/12/03 13:19:29;;;;;;;72.03;22.70;;;2.40;82.90;;;;;;9170173;19;20086;-66
2022/12/03 13:22:35;;;;;;;62.80;21.63;;;2.40;82.90;;;;;;9176385;19;20021;-62
2022/12/03 13:25:39;;;;;;;64.85;22.23;;;2.40;82.90;;;;;;9173521;19;20043;-64
2022/12/03 13:29:07;;;;;;;61.83;22.58;;;2.40;82.90;;;;;;9175071;19;20021;-64
2022/12/03 13:32:15;;;;;;;64.80;21.75;;;2.40;82.90;;;;;;9180963;19;20014;-66
2022/12/03 13:35:30;;;;;;;67.63;24.35;;;2.40;82.90;;;;;;9173540;19;20014;-66
2022/12/03 13:38:35;;;;;;;68.82;22.85;;;2.30;82.80;;;;;;9174004;19;20010;-66
2022/12/03 13:44:58;;;;;;;67.03;22.30;;;2.30;82.90;;;;;;9174553;19;20040;-63
2022/12/03 13:48:05;;;;;;;77.35;23.20;;;2.30;82.90;;;;;;9176088;19;20624;-65
2022/12/03 13:51:22;;;;;;;66.13;22.42;;;2.30;82.80;;;;;;9175529;19;20014;-64
2022/12/03 13:54:31;;;;;;;74.45;22.95;;;2.30;82.90;;;;;;9177179;19;20030;-66
2022/12/03 13:57:35;;;;;;;64.45;21.42;;;2.30;82.90;;;;;;9178465;19;20022;-65
2022/12/03 14:00:38;;;;;;;68.32;23.35;;;2.30;83.00;;;;;;9173332;19;20011;-65
2022/12/03 14:03:42;;;;;;;82.82;24.92;;;2.30;82.90;;;;;;9176631;19;20035;-72
2022/12/03 14:06:47;;;;;;;76.00;26.13;;;2.30;82.80;;;;;;9176946;19;20078;-71
2022/12/03 14:09:52;;;;;;;65.60;23.17;;;2.30;82.80;;;;;;9175047;19;20018;-70
2022/12/03 14:12:57;;;;;;;74.43;22.52;;;2.30;82.80;;;;;;9177686;19;20018;-66
2022/12/03 14:16:01;;;;;;;68.03;23.77;;;2.30;82.80;;;;;;9166100;19;21150;-65
2022/12/03 14:19:05;;;;;;;80.75;23.73;;;2.20;82.70;;;;;;9158358;19;20803;-65
2022/12/03 14:22:09;;;;;;;74.20;24.20;;;2.20;82.80;;;;;;9166273;19;20022;-66
2022/12/03 14:25:15;;;;;;;64.45;22.65;;;2.10;82.80;;;;;;9158418;19;20014;-66
2022/12/03 14:28:18;;;;;;;67.35;22.00;;;2.10;82.80;;;;;;9165772;19;20037;-65
2022/12/03 14:31:22;;;;;;;;;;;2.10;82.80;;;;;;9167452;19;20011;-65
2022/12/03 14:34:26;;;;;;;57.55;17.42;;;2.10;82.90;;;;;;9165698;19;20266;-66
2022/12/03 14:37:30;;;;;;;;;;;2.10;82.80;;;;;;9162461;19;20483;-66
2022/12/03 14:40:35;;;;;;;68.10;24.02;;;2.10;82.80;;;;;;9166744;19;19923;-66
2022/12/03 14:43:54;;;;;;;68.07;23.13;;;2.00;82.80;;;;;;9163709;19;20030;-65
2022/12/03 14:46:58;;;;;;;;;;;2.00;82.80;;;;;;9166731;19;20011;-64
2022/12/03 14:50:03;;;;;;;71.15;22.27;;;2.00;82.90;;;;;;9166537;19;19918;-64
2022/12/03 14:53:07;;;;;;;74.30;23.52;;;1.90;82.80;;;;;;9165574;19;20353;-65
2022/12/03 14:56:13;;;;;;;;;;;1.90;82.90;;;;;;9170626;19;20364;-64
2022/12/03 14:59:17;;;;;;;62.92;21.33;;;2.00;82.90;;;;;;9162808;19;20635;-66
2022/12/03 15:02:20;;;;;;;;;;;2.00;82.90;;;;;;9168629;19;20375;-65
2022/12/03 15:05:24;;;;;;;75.65;23.27;;;1.90;82.80;;;;;;9166739;19;20644;-64
2022/12/03 15:08:32;;;;;;;62.90;22.85;;;1.90;82.90;;;;;;9164682;19;20015;-65
2022/12/03 15:11:37;;;;;;;;;;;1.90;82.80;;;;;;9166776;19;20034;-64
2022/12/03 15:14:49;;;;;;;66.68;23.42;;;1.90;82.80;;;;;;9164967;19;19942;-66
2022/12/03 15:17:52;;;;;;;;;;;1.90;82.80;;;;;;9168431;19;20018;-64
2022/12/03 15:20:56;;;;;;;69.67;22.33;;;1.90;82.80;;;;;;9163221;19;19915;-68
2022/12/03 15:24:00;;;;;;;;;;;1.90;82.80;;;;;;9171244;19;20032;-67
2022/12/03 15:27:05;;;;;;;64.55;20.95;;;1.80;82.80;;;;;;9166966;19;19926;-64
2022/12/03 15:30:10;;;;;;;65.07;22.30;;;1.80;82.80;;;;;;9168681;19;20026;-66
2022/12/03 15:33:16;;;;;;;67.18;20.50;;;1.80;82.90;;;;;;9171505;19;20010;-64
2022/12/03 15:36:20;;;;;;;59.70;22.48;;;1.80;82.90;;;;;;9178104;19;20015;-65
2022/12/03 15:39:24;;;;;;;64.95;21.38;;;1.80;82.90;;;;;;9176551;19;20047;-65
2022/12/03 15:42:30;;;;;;;55.58;21.80;;;1.80;82.90;;;;;;9175340;19;20017;-65
2022/12/03 15:45:34;;;;;;;59.60;21.48;;;1.80;82.80;;;;;;9176130;19;20046;-64
2022/12/03 15:48:38;;;;;;;57.83;21.95;;;1.80;82.90;;;;;;9172440;19;20922;-65
2022/12/03 15:51:41;;;;;;;66.60;22.45;;;1.80;82.80;;;;;;9175432;19;20030;-65
2022/12/03 15:54:48;;;;;;;64.18;22.08;;;1.80;82.90;;;;;;9173706;19;20014;-64
2022/12/03 15:57:54;;;;;;;52.83;19.13;;;1.80;82.80;;;;;;9178205;19;20022;-65
2022/12/03 16:00:57;;;;;;;59.75;20.02;;;1.80;82.70;;;;;;9177275;19;20022;-65
2022/12/03 16:04:01;;;;;;;;;;;1.80;82.70;;;;;;9178124;19;20034;-65
2022/12/03 16:07:05;;;;;;;53.73;21.40;;;1.90;82.80;;;;;;9176522;19;20357;-65
2022/12/03 16:10:12;;;;;;;46.55;18.08;;;1.80;82.60;;;;;;9170368;19;20091;-64
2022/12/03 16:13:17;;;;;;;48.28;19.90;;;1.80;82.70;;;;;;9164379;19;20027;-65
2022/12/03 16:16:21;;;;;;;51.55;20.92;;;1.80;82.60;;;;;;9164656;19;20014;-68
2022/12/03 16:19:25;;;;;;;50.63;20.35;;;1.80;82.70;;;;;;9165648;19;20010;-64
2022/12/03 16:22:29;;;;;;;52.30;21.48;;;1.80;82.70;;;;;;9173611;19;20538;-65
2022/12/03 16:25:32;;;;;;;;;;;1.80;82.70;;;;;;9172636;19;20021;-66
2022/12/03 16:28:38;;;;;;;49.67;20.10;;;1.70;82.60;;;;;;9176440;19;19982;-63
2022/12/03 16:31:41;;;;;;;54.17;20.48;;;1.80;82.60;;;;;;9176872;19;20027;-64
2022/12/03 16:34:45;;;;;;;45.28;18.90;;;1.80;82.70;;;;;;9171139;19;20031;-65
2022/12/03 16:37:49;;;;;;;52.92;20.63;;;1.80;82.60;;;;;;9163442;19;20027;-66
2022/12/03 16:40:53;;;;;;;;;;;1.80;82.60;;;;;;9168955;19;20825;-64
2022/12/03 16:44:01;;;;;;;51.70;20.37;;;1.80;82.60;;;;;;9175096;19;20434;-67